sensor_id;sensor_type;location;lat;lon;timestamp;pressure;altitude;pressure_sealevel;temperature;humidity
7168;BME280;3625;51.762;14.320;2023-05-14T00:01:28;101123.69;;;12.42;100.00
7168;BME280;3625;51.762;14.320;2023-05-14T00:03:57;101124.66;;;12.37;100.00
7168;BME280;3625;51.762;14.320;2023-05-14T00:06:27;101118.59;;;12.30;100.00
7168;BME280;3625;51.762;14.320;2023-05-14T00:08:56;101111.59;;;12.26;100.00
7168;BME280;3625;51.762;14.320;2023-05-14T00:11:24;101112.38;;;12.31;100.00
7168;BME280;3625;51.762;14.320;2023-05-14T00:13:53;101110.72;;;12.26;100.00
7168;BME280;3625;51.762;14.320;2023-05-14T00:16:21;101110.91;;;12.17;100.00
7168;BME280;3625;51.762;14.320;2023-05-14T00:18:50;101107.56;;;12.04;100.00
7168;BME280;3625;51.762;14.320;2023-05-14T00:21:18;101102.44;;;11.95;100.00
7168;BME280;3625;51.762;14.320;2023-05-14T00:23:48;101106.19;;;11.83;100.00
7168;BME280;3625;51.762;14.320;2023-05-14T00:26:16;101098.38;;;11.72;100.00
7168;BME280;3625;51.762;14.320;2023-05-14T00:28:46;101108.28;;;11.61;100.00
7168;BME280;3625;51.762;14.320;2023-05-14T00:31:15;101100.38;;;11.58;100.00
7168;BME280;3625;51.762;14.320;2023-05-14T00:33:43;101110.88;;;11.64;100.00
7168;BME280;3625;51.762;14.320;2023-05-14T00:36:12;101108.34;;;11.58;100.00
7168;BME280;3625;51.762;14.320;2023-05-14T00:38:41;101104.88;;;11.52;100.00
7168;BME280;3625;51.762;14.320;2023-05-14T00:41:11;101103.13;;;11.51;100.00
7168;BME280;3625;51.762;14.320;2023-05-14T00:43:40;101103.13;;;11.51;100.00
7168;BME280;3625;51.762;14.320;2023-05-14T00:46:09;101098.84;;;11.44;100.00
7168;BME280;3625;51.762;14.320;2023-05-14T00:48:39;101093.59;;;11.41;100.00
7168;BME280;3625;51.762;14.320;2023-05-14T00:51:08;101098.09;;;11.34;100.00
7168;BME280;3625;51.762;14.320;2023-05-14T00:53:37;101100.75;;;11.34;100.00
7168;BME280;3625;51.762;14.320;2023-05-14T00:56:06;101102.63;;;11.27;100.00
7168;BME280;3625;51.762;14.320;2023-05-14T00:58:36;101100.09;;;11.18;100.00
7168;BME280;3625;51.762;14.320;2023-05-14T01:01:05;101096.66;;;11.12;100.00
7168;BME280;3625;51.762;14.320;2023-05-14T01:03:34;101042.47;;;10.73;100.00
7168;BME280;3625;51.762;14.320;2023-05-14T01:06:14;101094.34;;;10.89;100.00
7168;BME280;3625;51.762;14.320;2023-05-14T01:08:56;101076.19;;;10.62;100.00
7168;BME280;3625;51.762;14.320;2023-05-14T01:11:32;101076.28;;;10.54;100.00
7168;BME280;3625;51.762;14.320;2023-05-14T01:14:13;101087.75;;;10.53;100.00
7168;BME280;3625;51.762;14.320;2023-05-14T01:16:51;101084.31;;;10.45;100.00
7168;BME280;3625;51.762;14.320;2023-05-14T01:19:32;101084.41;;;10.37;100.00
7168;BME280;3625;51.762;14.320;2023-05-14T01:22:04;101077.44;;;10.29;100.00
7168;BME280;3625;51.762;14.320;2023-05-14T01:24:33;101033.69;;;9.96;100.00
7168;BME280;3625;51.762;14.320;2023-05-14T01:27:11;101075.78;;;10.20;100.00
7168;BME280;3625;51.762;14.320;2023-05-14T01:29:50;101084.56;;;10.20;100.00
7168;BME280;3625;51.762;14.320;2023-05-14T01:32:22;101038.06;;;10.01;100.00
7168;BME280;3625;51.762;14.320;2023-05-14T01:34:54;101087.09;;;10.31;100.00
7168;BME280;3625;51.762;14.320;2023-05-14T01:37:28;101077.44;;;10.29;100.00
7168;BME280;3625;51.762;14.320;2023-05-14T01:39:59;101081.88;;;10.27;100.00
7168;BME280;3625;51.762;14.320;2023-05-14T01:42:28;101077.47;;;10.27;100.00
7168;BME280;3625;51.762;14.320;2023-05-14T01:44:58;101076.44;;;10.39;100.00
7168;BME280;3625;51.762;14.320;2023-05-14T01:47:27;101078.25;;;10.34;100.00
7168;BME280;3625;51.762;14.320;2023-05-14T01:49:56;101074.03;;;10.19;100.00
7168;BME280;3625;51.762;14.320;2023-05-14T01:52:26;101076.78;;;10.05;100.00
7168;BME280;3625;51.762;14.320;2023-05-14T01:54:55;101076.84;;;9.99;100.00
7168;BME280;3625;51.762;14.320;2023-05-14T01:57:24;101070.75;;;9.90;100.00
7168;BME280;3625;51.762;14.320;2023-05-14T01:59:53;101073.41;;;9.91;100.00
7168;BME280;3625;51.762;14.320;2023-05-14T02:02:22;101078.75;;;9.85;100.00
7168;BME280;3625;51.762;14.320;2023-05-14T02:04:51;101077.91;;;9.80;100.00
7168;BME280;3625;51.762;14.320;2023-05-14T02:07:20;101082.31;;;9.79;100.00
7168;BME280;3625;51.762;14.320;2023-05-14T02:09:50;101081.34;;;9.90;100.00
7168;BME280;3625;51.762;14.320;2023-05-14T02:12:19;101069.88;;;9.91;100.00
7168;BME280;3625;51.762;14.320;2023-05-14T02:14:48;101069.94;;;9.83;100.00
7168;BME280;3625;51.762;14.320;2023-05-14T02:17:17;101076.03;;;9.94;100.00
7168;BME280;3625;51.762;14.320;2023-05-14T02:19:46;101076.81;;;10.01;100.00
7168;BME280;3625;51.762;14.320;2023-05-14T02:22:14;101078.66;;;9.93;100.00
7168;BME280;3625;51.762;14.320;2023-05-14T02:24:43;101081.34;;;9.88;100.00
7168;BME280;3625;51.762;14.320;2023-05-14T02:27:13;101080.47;;;9.88;100.00
7168;BME280;3625;51.762;14.320;2023-05-14T02:29:42;101073.41;;;9.87;100.00
7168;BME280;3625;51.762;14.320;2023-05-14T02:32:10;101062.91;;;9.83;100.00
7168;BME280;3625;51.762;14.320;2023-05-14T02:34:39;101064.69;;;9.81;100.00
7168;BME280;3625;51.762;14.320;2023-05-14T02:37:08;101059.41;;;9.80;100.00
7168;BME280;3625;51.762;14.320;2023-05-14T02:39:37;101064.75;;;9.75;100.00
7168;BME280;3625;51.762;14.320;2023-05-14T02:42:27;101014.88;;;9.40;100.00
7168;BME280;3625;51.762;14.320;2023-05-14T02:44:56;101065.72;;;9.65;100.00
7168;BME280;3625;51.762;14.320;2023-05-14T02:47:27;101063.97;;;9.61;100.00
7168;BME280;3625;51.762;14.320;2023-05-14T02:49:56;101065.78;;;9.58;100.00
7168;BME280;3625;51.762;14.320;2023-05-14T02:52:24;101072.84;;;9.53;100.00
7168;BME280;3625;51.762;14.320;2023-05-14T02:54:53;101073.72;;;9.52;100.00
7168;BME280;3625;51.762;14.320;2023-05-14T02:57:22;101061.44;;;9.51;100.00
7168;BME280;3625;51.762;14.320;2023-05-14T02:59:52;101069.38;;;9.48;100.00
7168;BME280;3625;51.762;14.320;2023-05-14T03:02:21;101071.06;;;9.59;100.00
7168;BME280;3625;51.762;14.320;2023-05-14T03:04:50;101071.88;;;9.64;100.00
7168;BME280;3625;51.762;14.320;2023-05-14T03:07:19;101062.25;;;9.59;100.00
7168;BME280;3625;51.762;14.320;2023-05-14T03:09:48;101061.44;;;9.51;100.00
7168;BME280;3625;51.762;14.320;2023-05-14T03:12:16;101067.69;;;9.42;100.00
7168;BME280;3625;51.762;14.320;2023-05-14T03:14:45;101065.97;;;9.33;100.00
7168;BME280;3625;51.762;14.320;2023-05-14T03:17:15;101064.22;;;9.29;100.00
7168;BME280;3625;51.762;14.320;2023-05-14T03:19:44;101067.75;;;9.27;100.00
7168;BME280;3625;51.762;14.320;2023-05-14T03:22:12;101076.56;;;9.30;100.00
7168;BME280;3625;51.762;14.320;2023-05-14T03:24:42;101067.69;;;9.39;100.00
7168;BME280;3625;51.762;14.320;2023-05-14T03:27:10;101071.09;;;9.52;100.00
7168;BME280;3625;51.762;14.320;2023-05-14T03:29:39;101068.38;;;9.62;100.00
7168;BME280;3625;51.762;14.320;2023-05-14T03:32:08;101069.06;;;9.86;100.00
7168;BME280;3625;51.762;14.320;2023-05-14T03:34:38;101067.13;;;10.01;100.00
7168;BME280;3625;51.762;14.320;2023-05-14T03:37:07;101070.56;;;10.09;100.00
7168;BME280;3625;51.762;14.320;2023-05-14T03:39:36;101066.97;;;10.15;100.00
7168;BME280;3625;51.762;14.320;2023-05-14T03:42:05;101070.47;;;10.21;100.00
7168;BME280;3625;51.762;14.320;2023-05-14T03:44:33;101015.19;;;9.96;100.00
7168;BME280;3625;51.762;14.320;2023-05-14T03:47:03;101041.44;;;10.18;100.00
7168;BME280;3625;51.762;14.320;2023-05-14T03:49:32;101070.31;;;10.35;100.00
7168;BME280;3625;51.762;14.320;2023-05-14T03:52:03;101075.63;;;10.32;100.00
7168;BME280;3625;51.762;14.320;2023-05-14T03:54:32;101070.44;;;10.25;100.00
7168;BME280;3625;51.762;14.320;2023-05-14T03:57:01;101078.44;;;10.20;100.00
7168;BME280;3625;51.762;14.320;2023-05-14T03:59:29;101060.81;;;10.13;100.00
7168;BME280;3625;51.762;14.320;2023-05-14T04:01:58;101067.97;;;10.05;100.00
7168;BME280;3625;51.762;14.320;2023-05-14T04:04:27;101063.59;;;10.02;100.00
7168;BME280;3625;51.762;14.320;2023-05-14T04:06:55;101054.78;;;10.02;100.00
7168;BME280;3625;51.762;14.320;2023-05-14T04:09:29;101060.09;;;10.02;100.00
7168;BME280;3625;51.762;14.320;2023-05-14T04:11:57;101058.25;;;10.07;100.00
7168;BME280;3625;51.762;14.320;2023-05-14T04:14:26;101058.25;;;10.08;100.00
7168;BME280;3625;51.762;14.320;2023-05-14T04:16:55;101056.41;;;10.12;100.00
7168;BME280;3625;51.762;14.320;2023-05-14T04:19:26;101056.31;;;10.27;100.00
7168;BME280;3625;51.762;14.320;2023-05-14T04:21:56;101050.81;;;10.45;100.00
7168;BME280;3625;51.762;14.320;2023-05-14T04:24:24;101054.91;;;10.68;100.00
7168;BME280;3625;51.762;14.320;2023-05-14T04:26:54;101060.91;;;10.82;100.00
7168;BME280;3625;51.762;14.320;2023-05-14T04:29:23;101055.41;;;10.97;100.00
7168;BME280;3625;51.762;14.320;2023-05-14T04:31:52;101058.75;;;11.10;100.00
7168;BME280;3625;51.762;14.320;2023-05-14T04:34:21;101064.81;;;11.16;100.00
7168;BME280;3625;51.762;14.320;2023-05-14T04:36:49;101063.84;;;11.23;100.00
7168;BME280;3625;51.762;14.320;2023-05-14T04:39:18;101065.53;;;11.27;100.00
7168;BME280;3625;51.762;14.320;2023-05-14T04:41:47;101067.38;;;11.24;100.00
7168;BME280;3625;51.762;14.320;2023-05-14T04:44:17;101066.53;;;11.20;100.00
7168;BME280;3625;51.762;14.320;2023-05-14T04:46:59;101061.25;;;11.19;100.00
7168;BME280;3625;51.762;14.320;2023-05-14T04:49:28;101015.59;;;11.03;100.00
7168;BME280;3625;51.762;14.320;2023-05-14T04:51:57;101049.47;;;11.40;100.00
7168;BME280;3625;51.762;14.320;2023-05-14T04:54:26;101050.97;;;11.54;100.00
7168;BME280;3625;51.762;14.320;2023-05-14T04:56:54;101059.59;;;11.67;100.00
7168;BME280;3625;51.762;14.320;2023-05-14T04:59:24;101053.09;;;11.86;100.00
7168;BME280;3625;51.762;14.320;2023-05-14T05:01:53;101067.22;;;11.87;100.00
7168;BME280;3625;51.762;14.320;2023-05-14T05:04:22;101061.63;;;12.03;100.00
7168;BME280;3625;51.762;14.320;2023-05-14T05:06:51;101063.94;;;12.20;100.00
7168;BME280;3625;51.762;14.320;2023-05-14T05:09:19;101052.59;;;12.14;100.00
7168;BME280;3625;51.762;14.320;2023-05-14T05:11:48;101057.47;;;12.36;100.00
7168;BME280;3625;51.762;14.320;2023-05-14T05:14:16;101067.75;;;12.53;100.00
7168;BME280;3625;51.762;14.320;2023-05-14T05:16:46;101057.69;;;12.67;98.07
7168;BME280;3625;51.762;14.320;2023-05-14T05:19:15;101058.00;;;12.94;100.00
7168;BME280;3625;51.762;14.320;2023-05-14T05:21:43;101064.53;;;13.19;99.46
7168;BME280;3625;51.762;14.320;2023-05-14T05:24:12;101058.75;;;13.39;98.02
7168;BME280;3625;51.762;14.320;2023-05-14T05:26:41;101056.59;;;13.54;93.85
7168;BME280;3625;51.762;14.320;2023-05-14T05:29:10;101057.94;;;13.71;95.79
7168;BME280;3625;51.762;14.320;2023-05-14T05:31:38;101057.53;;;13.87;95.32
7168;BME280;3625;51.762;14.320;2023-05-14T05:34:09;101059.75;;;14.03;95.03
7168;BME280;3625;51.762;14.320;2023-05-14T05:36:38;101062.41;;;14.04;87.47
7168;BME280;3625;51.762;14.320;2023-05-14T05:39:07;101056.91;;;14.10;87.28
7168;BME280;3625;51.762;14.320;2023-05-14T05:41:35;101053.50;;;14.05;85.07
7168;BME280;3625;51.762;14.320;2023-05-14T05:44:04;101053.69;;;14.30;85.20
7168;BME280;3625;51.762;14.320;2023-05-14T05:46:33;101056.81;;;14.13;80.41
7168;BME280;3625;51.762;14.320;2023-05-14T05:49:01;101054.66;;;14.27;82.50
7168;BME280;3625;51.762;14.320;2023-05-14T05:51:31;101052.66;;;14.35;79.94
7168;BME280;3625;51.762;14.320;2023-05-14T05:54:00;101053.81;;;14.58;82.42
7168;BME280;3625;51.762;14.320;2023-05-14T05:56:28;101053.09;;;14.53;77.85
7168;BME280;3625;51.762;14.320;2023-05-14T05:58:57;101055.22;;;14.40;78.80
7168;BME280;3625;51.762;14.320;2023-05-14T06:01:26;101051.38;;;14.50;79.70
7168;BME280;3625;51.762;14.320;2023-05-14T06:03:56;101058.41;;;14.53;77.15
7168;BME280;3625;51.762;14.320;2023-05-14T06:06:25;101065.97;;;14.68;77.29
7168;BME280;3625;51.762;14.320;2023-05-14T06:08:54;101065.25;;;14.91;76.35
7168;BME280;3625;51.762;14.320;2023-05-14T06:11:23;101040.13;;;14.99;75.72
7168;BME280;3625;51.762;14.320;2023-05-14T06:13:52;101061.75;;;15.18;74.72
7168;BME280;3625;51.762;14.320;2023-05-14T06:16:21;101042.53;;;15.35;74.73
7168;BME280;3625;51.762;14.320;2023-05-14T06:18:49;101062.19;;;15.87;75.61
7168;BME280;3625;51.762;14.320;2023-05-14T06:21:19;101065.38;;;16.22;75.10
7168;BME280;3625;51.762;14.320;2023-05-14T06:23:47;101057.28;;;16.49;74.09
7168;BME280;3625;51.762;14.320;2023-05-14T06:26:17;101062.22;;;16.59;67.79
7168;BME280;3625;51.762;14.320;2023-05-14T06:28:45;101067.03;;;16.75;67.41
7168;BME280;3625;51.762;14.320;2023-05-14T06:31:14;101067.72;;;16.80;68.76
7168;BME280;3625;51.762;14.320;2023-05-14T06:33:43;101067.25;;;16.92;70.53
7168;BME280;3625;51.762;14.320;2023-05-14T06:36:12;101067.72;;;16.80;67.15
7168;BME280;3625;51.762;14.320;2023-05-14T06:38:40;101060.38;;;17.08;68.88
7168;BME280;3625;51.762;14.320;2023-05-14T06:41:10;101062.22;;;17.06;64.39
7168;BME280;3625;51.762;14.320;2023-05-14T06:43:39;101053.25;;;16.85;66.05
7168;BME280;3625;51.762;14.320;2023-05-14T06:46:08;101064.53;;;17.15;65.13
7168;BME280;3625;51.762;14.320;2023-05-14T06:48:37;101054.72;;;17.59;65.75
7168;BME280;3625;51.762;14.320;2023-05-14T06:51:05;101039.78;;;17.54;61.14
7168;BME280;3625;51.762;14.320;2023-05-14T06:53:34;101065.75;;;17.94;58.31
7168;BME280;3625;51.762;14.320;2023-05-14T06:56:03;101062.72;;;18.23;56.51
7168;BME280;3625;51.762;14.320;2023-05-14T06:58:32;101065.44;;;18.01;52.70
7168;BME280;3625;51.762;14.320;2023-05-14T07:01:02;101063.81;;;18.38;54.42
7168;BME280;3625;51.762;14.320;2023-05-14T07:03:31;101064.28;;;18.68;54.05
7168;BME280;3625;51.762;14.320;2023-05-14T07:05:59;101058.41;;;18.19;51.43
7168;BME280;3625;51.762;14.320;2023-05-14T07:08:28;101052.56;;;17.69;54.75
7168;BME280;3625;51.762;14.320;2023-05-14T07:10:57;101043.28;;;17.34;56.62
7168;BME280;3625;51.762;14.320;2023-05-14T07:13:26;100976.78;;;16.81;59.61
7168;BME280;3625;51.762;14.320;2023-05-14T07:15:55;101038.19;;;17.28;61.10
7168;BME280;3625;51.762;14.320;2023-05-14T07:18:24;100993.81;;;17.22;60.97
7168;BME280;3625;51.762;14.320;2023-05-14T07:20:53;101036.63;;;17.66;60.59
7168;BME280;3625;51.762;14.320;2023-05-14T07:23:22;101036.13;;;17.78;60.34
7168;BME280;3625;51.762;14.320;2023-05-14T07:25:51;101033.44;;;17.78;59.44
7168;BME280;3625;51.762;14.320;2023-05-14T07:28:19;101031.22;;;17.67;60.29
7168;BME280;3625;51.762;14.320;2023-05-14T07:30:48;101022.53;;;17.61;60.55
7168;BME280;3625;51.762;14.320;2023-05-14T07:33:17;101028.72;;;17.41;55.90
7168;BME280;3625;51.762;14.320;2023-05-14T07:35:47;100899.63;;;16.50;56.87
7168;BME280;3625;51.762;14.320;2023-05-14T07:38:18;101019.03;;;17.17;58.03
7168;BME280;3625;51.762;14.320;2023-05-14T07:40:49;101015.53;;;17.15;58.44
7168;BME280;3625;51.762;14.320;2023-05-14T07:43:18;101011.19;;;17.12;59.56
7168;BME280;3625;51.762;14.320;2023-05-14T07:45:49;101000.50;;;17.12;60.42
7168;BME280;3625;51.762;14.320;2023-05-14T07:48:20;100893.78;;;16.41;57.03
7168;BME280;3625;51.762;14.320;2023-05-14T07:50:50;100995.72;;;17.20;57.22
7168;BME280;3625;51.762;14.320;2023-05-14T07:53:19;100989.22;;;17.26;53.72
7168;BME280;3625;51.762;14.320;2023-05-14T07:55:48;100989.78;;;17.34;53.58
7168;BME280;3625;51.762;14.320;2023-05-14T07:58:17;100984.09;;;17.42;54.36
7168;BME280;3625;51.762;14.320;2023-05-14T08:00:46;100983.94;;;17.46;55.42
7168;BME280;3625;51.762;14.320;2023-05-14T08:03:15;100989.88;;;17.53;54.99
7168;BME280;3625;51.762;14.320;2023-05-14T08:05:43;100986.13;;;17.57;49.76
7168;BME280;3625;51.762;14.320;2023-05-14T08:08:13;100988.25;;;17.70;55.76
7168;BME280;3625;51.762;14.320;2023-05-14T08:10:42;100991.97;;;18.27;55.03
7168;BME280;3625;51.762;14.320;2023-05-14T08:13:12;100998.78;;;18.34;49.67
7168;BME280;3625;51.762;14.320;2023-05-14T08:15:41;100992.47;;;18.35;50.76
7168;BME280;3625;51.762;14.320;2023-05-14T08:18:10;100991.25;;;18.24;50.39
7168;BME280;3625;51.762;14.320;2023-05-14T08:20:39;100995.84;;;18.40;50.85
7168;BME280;3625;51.762;14.320;2023-05-14T08:23:08;100993.94;;;18.24;45.95
7168;BME280;3625;51.762;14.320;2023-05-14T08:25:38;100984.81;;;18.07;46.93
7168;BME280;3625;51.762;14.320;2023-05-14T08:28:07;100978.22;;;18.16;49.52
7168;BME280;3625;51.762;14.320;2023-05-14T08:30:36;100981.34;;;18.44;50.55
7168;BME280;3625;51.762;14.320;2023-05-14T08:33:05;100972.28;;;18.67;50.28
7168;BME280;3625;51.762;14.320;2023-05-14T08:35:34;100983.63;;;18.91;46.52
7168;BME280;3625;51.762;14.320;2023-05-14T08:38:03;100970.59;;;18.83;47.75
7168;BME280;3625;51.762;14.320;2023-05-14T08:40:32;100969.69;;;19.38;49.06
7168;BME280;3625;51.762;14.320;2023-05-14T08:43:02;100958.44;;;19.66;49.21
7168;BME280;3625;51.762;14.320;2023-05-14T08:45:32;100957.06;;;19.40;44.14
7168;BME280;3625;51.762;14.320;2023-05-14T08:48:05;100969.06;;;19.33;44.17
7168;BME280;3625;51.762;14.320;2023-05-14T08:50:35;100962.38;;;19.05;41.34
7168;BME280;3625;51.762;14.320;2023-05-14T08:53:04;100975.28;;;18.97;40.90
7168;BME280;3625;51.762;14.320;2023-05-14T08:55:33;100943.88;;;18.82;42.00
7168;BME280;3625;51.762;14.320;2023-05-14T08:58:03;100958.75;;;19.06;42.94
7168;BME280;3625;51.762;14.320;2023-05-14T09:00:32;100966.88;;;19.05;42.60
7168;BME280;3625;51.762;14.320;2023-05-14T09:03:02;100965.13;;;19.04;42.24
7168;BME280;3625;51.762;14.320;2023-05-14T09:05:33;100966.75;;;18.89;41.97
7168;BME280;3625;51.762;14.320;2023-05-14T09:08:01;100939.38;;;18.64;40.90
7168;BME280;3625;51.762;14.320;2023-05-14T09:10:30;100950.59;;;18.72;41.30
7168;BME280;3625;51.762;14.320;2023-05-14T09:12:58;100961.25;;;18.92;42.04
7168;BME280;3625;51.762;14.320;2023-05-14T09:15:29;100965.44;;;18.98;42.04
7168;BME280;3625;51.762;14.320;2023-05-14T09:17:58;100966.06;;;19.03;41.52
7168;BME280;3625;51.762;14.320;2023-05-14T09:20:27;100957.34;;;19.16;41.21
7168;BME280;3625;51.762;14.320;2023-05-14T09:22:57;100953.03;;;19.31;39.68
7168;BME280;3625;51.762;14.320;2023-05-14T09:25:27;100954.16;;;19.44;40.18
7168;BME280;3625;51.762;14.320;2023-05-14T09:27:58;100951.09;;;19.52;40.15
7168;BME280;3625;51.762;14.320;2023-05-14T09:30:31;100932.72;;;19.62;40.06
7168;BME280;3625;51.762;14.320;2023-05-14T09:33:01;100945.78;;;20.02;39.45
7168;BME280;3625;51.762;14.320;2023-05-14T09:35:30;100911.75;;;20.18;37.41
7168;BME280;3625;51.762;14.320;2023-05-14T09:37:59;100937.50;;;20.40;38.58
7168;BME280;3625;51.762;14.320;2023-05-14T09:40:28;100934.53;;;20.60;37.81
7168;BME280;3625;51.762;14.320;2023-05-14T09:42:57;100875.84;;;20.37;38.21
7168;BME280;3625;51.762;14.320;2023-05-14T09:45:28;100923.19;;;20.70;39.03
7168;BME280;3625;51.762;14.320;2023-05-14T09:48:00;100911.91;;;20.64;38.23
7168;BME280;3625;51.762;14.320;2023-05-14T09:50:29;100911.56;;;20.54;38.87
7168;BME280;3625;51.762;14.320;2023-05-14T09:52:58;100905.91;;;20.43;38.51
7168;BME280;3625;51.762;14.320;2023-05-14T09:55:27;100897.41;;;20.35;39.03
7168;BME280;3625;51.762;14.320;2023-05-14T09:57:56;100900.09;;;20.51;38.90
7168;BME280;3625;51.762;14.320;2023-05-14T10:00:25;100898.47;;;20.64;39.22
7168;BME280;3625;51.762;14.320;2023-05-14T10:02:56;100851.28;;;20.58;39.28
7168;BME280;3625;51.762;14.320;2023-05-14T10:05:27;100883.97;;;20.82;38.81
7168;BME280;3625;51.762;14.320;2023-05-14T10:07:59;100900.78;;;20.86;36.18
7168;BME280;3625;51.762;14.320;2023-05-14T10:10:32;100891.25;;;20.80;37.31
7168;BME280;3625;51.762;14.320;2023-05-14T10:13:06;100873.91;;;20.70;37.41
7168;BME280;3625;51.762;14.320;2023-05-14T10:15:42;100864.69;;;20.90;37.46
7168;BME280;3625;51.762;14.320;2023-05-14T10:18:18;100881.72;;;21.36;37.13
7168;BME280;3625;51.762;14.320;2023-05-14T10:20:56;100844.91;;;21.51;35.71
7168;BME280;3625;51.762;14.320;2023-05-14T10:23:29;100869.97;;;21.95;35.54
7168;BME280;3625;51.762;14.320;2023-05-14T10:25:58;100867.44;;;21.92;35.51
7168;BME280;3625;51.762;14.320;2023-05-14T10:28:30;100808.44;;;21.45;35.90
7168;BME280;3625;51.762;14.320;2023-05-14T10:31:12;100855.59;;;21.66;36.07
7168;BME280;3625;51.762;14.320;2023-05-14T10:33:49;100853.47;;;21.43;36.51
7168;BME280;3625;51.762;14.320;2023-05-14T10:36:20;100837.88;;;21.34;36.90
7168;BME280;3625;51.762;14.320;2023-05-14T10:38:55;100851.66;;;21.58;35.27
7168;BME280;3625;51.762;14.320;2023-05-14T10:41:24;100818.06;;;21.49;35.52
7168;BME280;3625;51.762;14.320;2023-05-14T10:43:56;100849.66;;;21.75;35.14
7168;BME280;3625;51.762;14.320;2023-05-14T10:46:25;100800.56;;;21.42;33.98
7168;BME280;3625;51.762;14.320;2023-05-14T10:48:55;100790.72;;;20.83;33.83
7168;BME280;3625;51.762;14.320;2023-05-14T10:51:26;100832.94;;;21.10;34.81
7168;BME280;3625;51.762;14.320;2023-05-14T10:53:55;100835.00;;;21.51;34.30
7168;BME280;3625;51.762;14.320;2023-05-14T10:56:24;100841.28;;;21.94;34.28
7168;BME280;3625;51.762;14.320;2023-05-14T10:58:58;100818.94;;;21.64;33.04
7168;BME280;3625;51.762;14.320;2023-05-14T11:01:27;100830.22;;;22.13;33.76
7168;BME280;3625;51.762;14.320;2023-05-14T11:03:57;100820.09;;;22.57;33.66
7168;BME280;3625;51.762;14.320;2023-05-14T11:06:28;100759.53;;;22.76;32.98
7168;BME280;3625;51.762;14.320;2023-05-14T11:09:34;100736.41;;;22.99;32.34
7168;BME280;3625;51.762;14.320;2023-05-14T11:12:35;100587.31;;;22.57;32.45
7168;BME280;3625;51.762;14.320;2023-05-14T11:15:08;100812.41;;;24.19;32.06
7168;BME280;3625;51.762;14.320;2023-05-14T11:17:39;100732.47;;;23.79;32.30
7168;BME280;3625;51.762;14.320;2023-05-14T11:20:12;100697.28;;;22.79;30.80
7168;BME280;3625;51.762;14.320;2023-05-14T11:22:44;100810.84;;;23.53;31.44
7168;BME280;3625;51.762;14.320;2023-05-14T11:25:13;100761.25;;;23.67;31.26
7168;BME280;3625;51.762;14.320;2023-05-14T11:27:44;100528.50;;;22.49;31.44
7168;BME280;3625;51.762;14.320;2023-05-14T11:30:18;100679.88;;;23.46;30.65
7168;BME280;3625;51.762;14.320;2023-05-14T11:32:48;100668.88;;;22.21;31.30
7168;BME280;3625;51.762;14.320;2023-05-14T11:35:18;100801.22;;;23.24;31.70
7168;BME280;3625;51.762;14.320;2023-05-14T11:37:50;100793.03;;;23.63;31.04
7168;BME280;3625;51.762;14.320;2023-05-14T11:40:20;100780.31;;;23.01;31.13
7168;BME280;3625;51.762;14.320;2023-05-14T11:42:50;100757.44;;;23.44;30.24
7168;BME280;3625;51.762;14.320;2023-05-14T11:45:24;100785.78;;;23.26;31.54
7168;BME280;3625;51.762;14.320;2023-05-14T11:47:56;100793.88;;;23.77;30.13
7168;BME280;3625;51.762;14.320;2023-05-14T11:50:24;100784.19;;;24.23;30.46
7168;BME280;3625;51.762;14.320;2023-05-14T11:52:59;100764.91;;;24.75;30.72
7168;BME280;3625;51.762;14.320;2023-05-14T11:55:27;100790.03;;;25.70;29.79
7168;BME280;3625;51.762;14.320;2023-05-14T11:57:56;100792.63;;;25.82;29.40
7168;BME280;3625;51.762;14.320;2023-05-14T12:00:26;100786.22;;;25.72;28.94
7168;BME280;3625;51.762;14.320;2023-05-14T12:02:56;100781.16;;;24.52;27.73
7168;BME280;3625;51.762;14.320;2023-05-14T12:05:26;100771.91;;;23.18;30.03
7168;BME280;3625;51.762;14.320;2023-05-14T12:08:02;100756.94;;;23.77;30.57
7168;BME280;3625;51.762;14.320;2023-05-14T12:10:41;100774.81;;;23.02;30.80
7168;BME280;3625;51.762;14.320;2023-05-14T12:13:10;100770.72;;;23.09;30.11
7168;BME280;3625;51.762;14.320;2023-05-14T12:15:44;100572.63;;;22.61;30.93
7168;BME280;3625;51.762;14.320;2023-05-14T12:18:16;100704.31;;;24.54;30.54
7168;BME280;3625;51.762;14.320;2023-05-14T12:20:51;100652.38;;;24.38;29.13
7168;BME280;3625;51.762;14.320;2023-05-14T12:23:31;100654.56;;;22.06;31.40
7168;BME280;3625;51.762;14.320;2023-05-14T12:26:25;100749.56;;;22.37;33.02
7168;BME280;3625;51.762;14.320;2023-05-14T12:28:58;100706.47;;;22.49;32.71
7168;BME280;3625;51.762;14.320;2023-05-14T12:31:28;100747.50;;;23.70;31.85
7168;BME280;3625;51.762;14.320;2023-05-14T12:33:57;100754.09;;;23.79;31.36
7168;BME280;3625;51.762;14.320;2023-05-14T12:36:26;100681.97;;;23.43;30.58
7168;BME280;3625;51.762;14.320;2023-05-14T12:39:01;100699.41;;;22.07;32.55
7168;BME280;3625;51.762;14.320;2023-05-14T12:41:32;100745.53;;;22.03;32.96
7168;BME280;3625;51.762;14.320;2023-05-14T12:44:03;100745.31;;;22.06;33.20
7168;BME280;3625;51.762;14.320;2023-05-14T12:46:32;100732.16;;;22.55;33.00
7168;BME280;3625;51.762;14.320;2023-05-14T12:49:01;100711.84;;;22.10;33.30
7168;BME280;3625;51.762;14.320;2023-05-14T12:51:30;100691.94;;;20.70;34.75
7168;BME280;3625;51.762;14.320;2023-05-14T12:54:01;100721.59;;;21.13;35.90
7168;BME280;3625;51.762;14.320;2023-05-14T12:56:29;100722.38;;;21.86;35.41
7168;BME280;3625;51.762;14.320;2023-05-14T12:58:58;100717.41;;;22.07;34.06
7168;BME280;3625;51.762;14.320;2023-05-14T13:01:27;100729.53;;;22.41;34.69
7168;BME280;3625;51.762;14.320;2023-05-14T13:03:55;100736.03;;;22.51;34.92
7168;BME280;3625;51.762;14.320;2023-05-14T13:06:26;100724.00;;;22.30;36.14
7168;BME280;3625;51.762;14.320;2023-05-14T13:09:00;100624.34;;;21.74;35.77
7168;BME280;3625;51.762;14.320;2023-05-14T13:11:35;100701.47;;;22.31;35.44
7168;BME280;3625;51.762;14.320;2023-05-14T13:14:03;100722.28;;;22.41;35.56